createdAt,value
2017-06-11T00:01:45.050Z,18.56
2017-06-11T00:04:11.383Z,18.58
2017-06-11T00:06:37.798Z,18.54
2017-06-11T00:09:04.159Z,18.55
2017-06-11T00:11:30.493Z,18.40
2017-06-11T00:13:56.843Z,18.39
2017-06-11T00:16:23.228Z,18.42
2017-06-11T00:18:49.562Z,18.40
2017-06-11T00:21:15.874Z,18.33
2017-06-11T00:23:42.202Z,18.46
2017-06-11T00:26:08.625Z,18.18
2017-06-11T00:28:34.934Z,18.34
2017-06-11T00:31:01.256Z,18.28
2017-06-11T00:33:27.581Z,18.40
2017-06-11T00:35:53.985Z,18.09
2017-06-11T00:38:20.294Z,18.15
2017-06-11T00:40:46.644Z,18.18
2017-06-11T00:43:13.099Z,18.08
2017-06-11T00:45:39.452Z,17.97
2017-06-11T00:48:05.789Z,18.16
2017-06-11T00:50:32.125Z,18.16
2017-06-11T00:52:58.468Z,18.19
2017-06-11T00:55:24.783Z,18.19
2017-06-11T00:57:51.121Z,18.22
2017-06-11T01:00:17.445Z,18.03
2017-06-11T01:02:43.816Z,17.97
2017-06-11T01:05:10.156Z,18.06
2017-06-11T01:07:36.496Z,18.06
2017-06-11T01:10:02.887Z,17.77
2017-06-11T01:12:29.250Z,17.88
2017-06-11T01:14:55.601Z,17.87
2017-06-11T01:17:21.927Z,17.93
2017-06-11T01:19:48.274Z,17.83
2017-06-11T01:22:14.640Z,17.82
2017-06-11T01:24:40.945Z,17.79
2017-06-11T01:27:07.294Z,17.95
2017-06-11T01:29:33.647Z,17.87
2017-06-11T01:32:00.037Z,17.71
2017-06-11T01:34:26.382Z,17.81
2017-06-11T01:36:53.033Z,17.84
2017-06-11T01:39:19.435Z,17.84
2017-06-11T01:41:45.769Z,17.73
2017-06-11T01:44:12.169Z,17.78
2017-06-11T01:46:38.526Z,17.67
2017-06-11T01:49:04.881Z,17.61
2017-06-11T01:51:31.216Z,17.74
2017-06-11T01:53:57.583Z,17.58
2017-06-11T01:56:23.922Z,17.65
2017-06-11T01:58:54.177Z,17.74
2017-06-11T02:01:20.772Z,17.63
2017-06-11T02:03:47.082Z,17.58
2017-06-11T02:06:13.419Z,17.50
2017-06-11T02:08:39.730Z,17.34
2017-06-11T02:11:06.140Z,17.64
2017-06-11T02:13:32.469Z,17.59
2017-06-11T02:15:58.779Z,17.44
2017-06-11T02:18:25.090Z,17.48
2017-06-11T02:20:51.536Z,17.49
2017-06-11T02:23:17.871Z,17.37
2017-06-11T02:25:44.213Z,17.46
2017-06-11T02:28:10.576Z,17.35
2017-06-11T02:30:36.904Z,17.33
2017-06-11T02:33:03.220Z,17.34
2017-06-11T02:35:29.590Z,17.39
2017-06-11T02:37:55.941Z,17.42
2017-06-11T02:40:22.282Z,17.37
2017-06-11T02:42:48.632Z,17.41
2017-06-11T02:45:16.307Z,17.13
2017-06-11T02:47:47.835Z,17.23
2017-06-11T02:50:14.676Z,17.34
2017-06-11T02:52:46.236Z,17.34
2017-06-11T02:55:13.314Z,17.26
2017-06-11T02:57:39.889Z,17.18
2017-06-11T03:00:06.385Z,17.03
2017-06-11T03:02:32.818Z,17.08
2017-06-11T03:05:00.202Z,17.18
2017-06-11T03:07:26.683Z,17.15
2017-06-11T03:09:59.067Z,17.15
2017-06-11T03:12:29.191Z,17.01
2017-06-11T03:14:55.617Z,17.10
2017-06-11T03:17:24.948Z,17.02
2017-06-11T03:19:52.066Z,16.99
2017-06-11T03:22:23.588Z,17.02
2017-06-11T03:24:49.973Z,17.02
2017-06-11T03:27:17.444Z,17.01
2017-06-11T03:29:43.953Z,16.94
2017-06-11T03:32:10.426Z,16.98
2017-06-11T03:34:36.771Z,16.84
2017-06-11T03:37:03.362Z,16.82
2017-06-11T03:39:34.936Z,17.09
2017-06-11T03:42:04.342Z,16.97
2017-06-11T03:44:31.142Z,16.94
2017-06-11T03:46:57.475Z,16.90
2017-06-11T03:49:23.895Z,16.96
2017-06-11T03:51:50.978Z,16.82
2017-06-11T03:54:18.582Z,16.89
2017-06-11T03:56:45.110Z,16.96
2017-06-11T03:59:12.193Z,16.95
2017-06-11T04:01:38.684Z,16.94
2017-06-11T04:04:05.412Z,17.01
2017-06-11T04:06:31.819Z,16.96
2017-06-11T04:08:58.139Z,17.04
2017-06-11T04:11:24.797Z,16.95
2017-06-11T04:13:51.576Z,16.91
2017-06-11T04:16:18.156Z,17.02
2017-06-11T04:18:44.993Z,17.07
2017-06-11T04:21:11.641Z,17.14
2017-06-11T04:23:38.236Z,17.22
2017-06-11T04:26:06.547Z,17.17
2017-06-11T04:28:32.869Z,17.24
2017-06-11T04:30:59.905Z,17.42
2017-06-11T04:33:28.316Z,17.38
2017-06-11T04:35:55.893Z,17.41
2017-06-11T04:38:22.561Z,17.65
2017-06-11T04:40:49.295Z,17.61
2017-06-11T04:43:15.737Z,17.62
2017-06-11T04:45:42.048Z,17.65
2017-06-11T04:48:14.297Z,17.86
2017-06-11T04:50:40.926Z,17.87
2017-06-11T04:53:07.254Z,17.88
2017-06-11T04:55:34.053Z,17.86
2017-06-11T04:58:05.751Z,17.98
2017-06-11T05:00:32.389Z,18.06
2017-06-11T05:02:58.858Z,18.16
2017-06-11T05:05:25.297Z,18.28
2017-06-11T05:07:51.721Z,18.29
2017-06-11T05:10:18.186Z,18.16
2017-06-11T05:12:49.825Z,18.29
2017-06-11T05:15:16.231Z,18.46
2017-06-11T05:17:42.788Z,18.53
2017-06-11T05:20:09.518Z,18.48
2017-06-11T05:22:35.864Z,18.51
2017-06-11T05:25:02.331Z,18.53
2017-06-11T05:27:29.564Z,18.59
2017-06-11T05:29:55.973Z,18.71
2017-06-11T05:32:22.702Z,18.73
2017-06-11T05:34:49.463Z,18.85
2017-06-11T05:37:15.968Z,18.95
2017-06-11T05:39:42.481Z,19.04
2017-06-11T05:42:09.229Z,19.10
2017-06-11T05:44:36.297Z,19.11
2017-06-11T05:47:07.782Z,19.16
2017-06-11T05:49:39.189Z,19.25
2017-06-11T05:52:07.464Z,19.27
2017-06-11T05:54:39.056Z,19.30
2017-06-11T05:57:05.557Z,19.33
2017-06-11T05:59:31.982Z,19.38
2017-06-11T06:01:58.539Z,19.50
2017-06-11T06:04:25.086Z,19.48
2017-06-11T06:06:51.411Z,19.61
2017-06-11T06:09:19.237Z,19.66
2017-06-11T06:11:50.971Z,19.75
2017-06-11T06:14:22.446Z,19.82
2017-06-11T06:16:54.799Z,19.86
2017-06-11T06:19:26.437Z,19.93
2017-06-11T06:21:58.148Z,19.95
2017-06-11T06:24:24.482Z,20.00
2017-06-11T06:26:50.907Z,20.08
2017-06-11T06:29:22.571Z,20.19
2017-06-11T06:31:48.919Z,20.35
2017-06-11T06:34:20.565Z,20.35
2017-06-11T06:36:47.578Z,20.58
2017-06-11T06:39:14.784Z,20.55
2017-06-11T06:41:41.579Z,20.63
2017-06-11T06:44:08.332Z,20.65
2017-06-11T06:46:37.733Z,20.85
2017-06-11T06:49:04.128Z,20.97
2017-06-11T06:51:31.604Z,21.08
2017-06-11T06:54:03.186Z,21.18
2017-06-11T06:56:29.603Z,21.14
2017-06-11T06:58:56.591Z,21.25
2017-06-11T07:01:22.999Z,21.37
2017-06-11T07:03:49.348Z,21.40
2017-06-11T07:06:15.800Z,21.57
2017-06-11T07:08:42.316Z,21.55
2017-06-11T07:11:08.967Z,21.63
2017-06-11T07:13:35.478Z,21.70
2017-06-11T07:16:04.850Z,21.72
2017-06-11T07:18:31.637Z,21.82
2017-06-11T07:20:58.367Z,22.09
2017-06-11T07:23:25.113Z,22.17
2017-06-11T07:25:51.554Z,22.45
2017-06-11T07:28:17.888Z,22.29
2017-06-11T07:30:50.411Z,22.43
2017-06-11T07:33:16.807Z,22.43
2017-06-11T07:35:48.511Z,22.39
2017-06-11T07:38:14.860Z,22.63
2017-06-11T07:40:41.257Z,22.65
2017-06-11T07:43:07.671Z,22.91
2017-06-11T07:45:34.540Z,23.17
2017-06-11T07:48:13.581Z,23.54
2017-06-11T07:50:40.157Z,23.34
2017-06-11T07:53:06.632Z,23.21
2017-06-11T07:55:33.730Z,23.23
2017-06-11T07:58:06.007Z,23.36
2017-06-11T08:00:32.421Z,23.57
2017-06-11T08:02:59.629Z,23.92
2017-06-11T08:05:27.164Z,23.93
2017-06-11T08:07:59.043Z,24.13
2017-06-11T08:10:25.557Z,24.18
2017-06-11T08:12:52.739Z,24.19
2017-06-11T08:15:20.082Z,24.10
2017-06-11T08:17:46.830Z,24.42
2017-06-11T08:20:13.168Z,24.69
2017-06-11T08:22:39.584Z,24.54
2017-06-11T08:25:07.077Z,25.20
2017-06-11T08:27:40.535Z,24.87
2017-06-11T08:30:14.101Z,25.13
2017-06-11T08:32:46.357Z,25.63
2017-06-11T08:35:18.229Z,25.48
2017-06-11T08:37:44.793Z,25.50
2017-06-11T08:40:16.556Z,25.75
2017-06-11T08:42:43.034Z,25.72
2017-06-11T08:45:09.371Z,25.88
2017-06-11T08:47:35.895Z,25.71
2017-06-11T08:50:08.251Z,25.36
2017-06-11T08:52:39.910Z,26.34
2017-06-11T08:55:11.600Z,26.20
2017-06-11T08:57:38.019Z,25.90
2017-06-11T09:00:04.416Z,26.52
2017-06-11T09:02:31.609Z,26.67
2017-06-11T09:05:03.230Z,26.44
2017-06-11T09:07:35.376Z,27.10
2017-06-11T09:10:01.870Z,26.81
2017-06-11T09:12:28.182Z,26.79
2017-06-11T09:14:59.843Z,26.61
2017-06-11T09:17:27.445Z,27.27
2017-06-11T09:19:55.145Z,27.33
2017-06-11T09:22:28.595Z,27.00
2017-06-11T09:24:54.989Z,27.47
2017-06-11T09:27:21.367Z,28.10
2017-06-11T09:29:48.089Z,27.79
2017-06-11T09:32:20.385Z,27.30
2017-06-11T09:34:51.920Z,28.17
2017-06-11T09:37:21.498Z,28.83
2017-06-11T09:39:48.039Z,27.95
2017-06-11T09:42:19.925Z,27.92
2017-06-11T09:44:46.939Z,28.02
2017-06-11T09:47:18.649Z,29.13
2017-06-11T09:49:45.161Z,29.40
2017-06-11T09:52:11.917Z,28.71
2017-06-11T09:54:41.751Z,29.96
2017-06-11T09:57:13.635Z,29.53
2017-06-11T09:59:45.999Z,29.45
2017-06-11T10:02:19.846Z,28.80
2017-06-11T10:04:47.350Z,29.05
2017-06-11T10:07:15.469Z,29.52
2017-06-11T10:09:47.177Z,29.49
2017-06-11T10:12:13.736Z,29.31
2017-06-11T10:14:45.251Z,29.80
2017-06-11T10:17:11.920Z,30.27
2017-06-11T10:19:38.377Z,30.31
2017-06-11T10:22:05.189Z,30.06
2017-06-11T10:24:32.591Z,30.84
2017-06-11T10:26:59.207Z,31.02
2017-06-11T10:29:25.726Z,30.54
2017-06-11T10:31:52.252Z,30.31
2017-06-11T10:34:19.104Z,30.87
2017-06-11T10:36:45.619Z,30.78
2017-06-11T10:39:18.404Z,30.80
2017-06-11T10:41:49.990Z,31.51
2017-06-11T10:44:17.380Z,30.77
2017-06-11T10:46:49.055Z,30.93
2017-06-11T10:49:15.576Z,30.87
2017-06-11T10:51:47.960Z,31.62
2017-06-11T10:54:14.419Z,31.55
2017-06-11T10:56:43.944Z,31.73
2017-06-11T10:59:10.898Z,31.81
2017-06-11T11:01:43.606Z,31.89
2017-06-11T11:04:10.686Z,31.99
2017-06-11T11:06:37.312Z,31.90
2017-06-11T11:09:03.757Z,32.00
2017-06-11T11:11:30.123Z,32.24
2017-06-11T11:13:56.462Z,31.91
2017-06-11T11:16:22.859Z,32.62
2017-06-11T11:18:49.298Z,32.31
2017-06-11T11:21:15.656Z,32.24
2017-06-11T11:23:42.089Z,33.27
2017-06-11T11:26:08.522Z,32.23
2017-06-11T11:28:34.862Z,32.41
2017-06-11T11:31:01.232Z,32.89
2017-06-11T11:33:27.621Z,32.60
2017-06-11T11:35:53.968Z,32.10
2017-06-11T11:38:20.310Z,32.95
2017-06-11T11:40:46.692Z,32.65
2017-06-11T11:43:13.162Z,33.06
2017-06-11T11:45:39.521Z,32.33
2017-06-11T11:48:05.988Z,32.29
2017-06-11T11:50:32.355Z,31.72
2017-06-11T11:52:58.817Z,31.74
2017-06-11T11:55:25.275Z,32.55
2017-06-11T11:57:51.683Z,32.36
2017-06-11T12:00:18.183Z,32.69
2017-06-11T12:02:44.556Z,32.80
2017-06-11T12:05:10.917Z,32.86
2017-06-11T12:07:37.282Z,33.65
2017-06-11T12:10:03.643Z,33.40
2017-06-11T12:12:30.117Z,33.52
2017-06-11T12:14:56.480Z,33.35
2017-06-11T12:17:22.865Z,34.08
2017-06-11T12:19:49.198Z,33.87
2017-06-11T12:22:15.616Z,34.37
2017-06-11T12:24:41.937Z,33.56
2017-06-11T12:27:08.268Z,33.35
2017-06-11T12:29:34.675Z,34.17
2017-06-11T12:32:01.130Z,34.18
2017-06-11T12:34:27.486Z,34.99
2017-06-11T12:36:53.862Z,34.20
2017-06-11T12:39:20.232Z,33.68
2017-06-11T12:41:46.628Z,33.60
2017-06-11T12:44:13.027Z,34.47
2017-06-11T12:46:39.392Z,34.55
2017-06-11T12:49:05.821Z,34.06
2017-06-11T12:51:32.185Z,34.30
2017-06-11T12:53:58.564Z,34.07
2017-06-11T12:56:24.940Z,34.93
2017-06-11T12:58:51.300Z,35.00
2017-06-11T13:01:17.653Z,34.75
2017-06-11T13:03:44.009Z,34.72
2017-06-11T13:06:10.360Z,34.41
2017-06-11T13:08:36.745Z,34.37
2017-06-11T13:11:03.116Z,34.04
2017-06-11T13:13:29.478Z,33.02
2017-06-11T13:15:55.817Z,34.11
2017-06-11T13:18:22.256Z,34.10
2017-06-11T13:20:48.621Z,34.30
2017-06-11T13:23:14.978Z,34.28
2017-06-11T13:25:41.318Z,33.70
2017-06-11T13:28:07.696Z,33.10
2017-06-11T13:30:34.117Z,33.06
2017-06-11T13:33:00.494Z,32.75
2017-06-11T13:35:26.828Z,32.18
2017-06-11T13:37:53.153Z,32.92
2017-06-11T13:40:19.497Z,32.39
2017-06-11T13:42:45.857Z,32.22
2017-06-11T13:45:12.283Z,32.47
2017-06-11T13:47:38.771Z,32.17
2017-06-11T13:50:05.179Z,32.42
2017-06-11T13:52:31.579Z,32.37
2017-06-11T13:54:58.086Z,32.38
2017-06-11T13:57:24.426Z,32.18
2017-06-11T13:59:51.474Z,32.20
2017-06-11T14:02:17.840Z,32.17
2017-06-11T14:04:44.195Z,32.37
2017-06-11T14:07:10.540Z,32.71
2017-06-11T14:09:36.910Z,32.42
2017-06-11T14:12:03.479Z,32.62
2017-06-11T14:14:29.860Z,32.14
2017-06-11T14:16:56.223Z,32.37
2017-06-11T14:19:22.712Z,32.31
2017-06-11T14:21:49.466Z,32.59
2017-06-11T14:24:15.848Z,32.21
2017-06-11T14:26:42.317Z,32.26
2017-06-11T14:29:08.746Z,32.33
2017-06-11T14:31:35.153Z,32.21
2017-06-11T14:34:01.511Z,32.20
2017-06-11T14:36:27.992Z,32.30
2017-06-11T14:38:54.564Z,31.72
2017-06-11T14:41:20.955Z,31.90
2017-06-11T14:43:47.301Z,31.58
2017-06-11T14:46:13.636Z,31.26
2017-06-11T14:48:40.110Z,30.92
2017-06-11T14:51:06.554Z,30.97
2017-06-11T14:53:32.912Z,31.28
2017-06-11T14:55:59.273Z,31.37
2017-06-11T14:58:25.662Z,31.42
2017-06-11T15:00:52.025Z,30.99
2017-06-11T15:03:18.350Z,30.93
2017-06-11T15:05:44.750Z,30.98
2017-06-11T15:08:11.266Z,30.67
2017-06-11T15:10:37.721Z,30.65
2017-06-11T15:13:04.131Z,30.54
2017-06-11T15:15:30.820Z,30.74
2017-06-11T15:17:57.220Z,30.81
2017-06-11T15:20:23.567Z,30.40
2017-06-11T15:22:49.953Z,30.32
2017-06-11T15:25:16.519Z,30.19
2017-06-11T15:27:42.899Z,30.03
2017-06-11T15:30:09.238Z,30.01
2017-06-11T15:32:35.649Z,29.80
2017-06-11T15:35:02.100Z,29.94
2017-06-11T15:37:28.468Z,29.63
2017-06-11T15:39:54.846Z,29.88
2017-06-11T15:42:21.214Z,29.91
2017-06-11T15:44:47.625Z,29.80
2017-06-11T15:47:13.995Z,30.13
2017-06-11T15:49:40.381Z,30.17
2017-06-11T15:52:06.842Z,30.06
2017-06-11T15:54:33.206Z,30.29
2017-06-11T15:56:59.581Z,30.28
2017-06-11T15:59:25.952Z,30.27
2017-06-11T16:01:52.331Z,30.44
2017-06-11T16:04:18.704Z,30.06
2017-06-11T16:06:57.704Z,30.15
2017-06-11T16:09:29.011Z,30.37
2017-06-11T16:11:55.410Z,30.21
2017-06-11T16:14:21.757Z,30.41
2017-06-11T16:16:48.104Z,30.27
2017-06-11T16:19:14.496Z,30.07
2017-06-11T16:21:40.872Z,30.29
2017-06-11T16:24:07.205Z,30.00
2017-06-11T16:26:34.747Z,29.94
2017-06-11T16:29:01.137Z,30.12
2017-06-11T16:31:27.454Z,30.02
2017-06-11T16:33:53.928Z,30.05
2017-06-11T16:36:20.309Z,29.89
2017-06-11T16:38:46.702Z,29.79
2017-06-11T16:41:13.078Z,29.63
2017-06-11T16:43:39.445Z,29.51
2017-06-11T16:46:05.844Z,29.62
2017-06-11T16:48:32.238Z,29.95
2017-06-11T16:50:58.558Z,30.00
2017-06-11T16:53:24.906Z,29.65
2017-06-11T16:55:51.265Z,28.96
2017-06-11T16:58:17.671Z,29.19
2017-06-11T17:00:44.049Z,29.33
2017-06-11T17:03:10.405Z,29.25
2017-06-11T17:05:36.742Z,29.01
2017-06-11T17:08:03.085Z,28.82
2017-06-11T17:10:29.471Z,28.96
2017-06-11T17:12:55.828Z,28.65
2017-06-11T17:15:22.261Z,28.61
2017-06-11T17:17:48.585Z,27.89
2017-06-11T17:20:14.952Z,27.88
2017-06-11T17:22:41.359Z,27.89
2017-06-11T17:25:07.719Z,27.98
2017-06-11T17:27:34.080Z,27.86
2017-06-11T17:30:00.548Z,28.24
2017-06-11T17:32:26.969Z,28.28
2017-06-11T17:34:53.378Z,28.24
2017-06-11T17:37:19.872Z,28.15
2017-06-11T17:39:46.225Z,28.39
2017-06-11T17:42:12.601Z,28.12
2017-06-11T17:44:38.957Z,28.14
2017-06-11T17:47:05.438Z,28.12
2017-06-11T17:49:31.890Z,28.03
2017-06-11T17:51:58.249Z,27.85
2017-06-11T17:54:24.745Z,27.99
2017-06-11T17:56:51.737Z,27.94
2017-06-11T17:59:18.155Z,27.89
2017-06-11T18:01:44.539Z,27.76
2017-06-11T18:04:10.928Z,27.37
2017-06-11T18:06:37.811Z,27.38
2017-06-11T18:09:04.652Z,27.51
2017-06-11T18:11:31.926Z,27.59
2017-06-11T18:13:59.527Z,27.37
2017-06-11T18:16:25.920Z,27.24
2017-06-11T18:18:52.261Z,27.38
2017-06-11T18:21:18.688Z,27.38
2017-06-11T18:23:45.095Z,27.29
2017-06-11T18:26:18.895Z,26.96
2017-06-11T18:28:47.336Z,26.91
2017-06-11T18:31:13.746Z,27.05
2017-06-11T18:33:40.123Z,27.05
2017-06-11T18:36:07.370Z,26.84
2017-06-11T18:38:33.760Z,26.66
2017-06-11T18:41:00.101Z,26.49
2017-06-11T18:43:26.602Z,26.51
2017-06-11T18:45:53.038Z,26.51
2017-06-11T18:48:19.374Z,26.43
2017-06-11T18:50:47.933Z,26.44
2017-06-11T18:53:14.569Z,26.41
2017-06-11T18:55:41.077Z,26.41
2017-06-11T18:58:07.542Z,26.25
2017-06-11T19:00:34.367Z,26.47
2017-06-11T19:03:00.732Z,26.49
2017-06-11T19:05:27.102Z,26.56
2017-06-11T19:07:53.661Z,26.58
2017-06-11T19:10:20.244Z,26.29
2017-06-11T19:12:47.473Z,26.22
2017-06-11T19:15:14.315Z,26.16
2017-06-11T19:17:40.834Z,26.12
2017-06-11T19:20:07.738Z,26.25
2017-06-11T19:22:34.211Z,25.93
2017-06-11T19:25:00.649Z,25.91
2017-06-11T19:27:27.118Z,25.81
2017-06-11T19:29:53.554Z,25.78
2017-06-11T19:32:20.014Z,25.83
2017-06-11T19:34:46.366Z,25.96
2017-06-11T19:37:12.713Z,25.94
2017-06-11T19:39:39.052Z,25.56
2017-06-11T19:42:05.390Z,25.63
2017-06-11T19:44:31.855Z,25.65
2017-06-11T19:46:58.219Z,25.77
2017-06-11T19:49:24.568Z,25.74
2017-06-11T19:51:50.955Z,25.53
2017-06-11T19:54:17.328Z,25.34
2017-06-11T19:56:43.715Z,25.27
2017-06-11T19:59:10.073Z,25.28
2017-06-11T20:01:36.451Z,25.18
2017-06-11T20:04:02.818Z,25.24
2017-06-11T20:06:29.195Z,24.94
2017-06-11T20:08:55.544Z,24.97
2017-06-11T20:11:21.922Z,24.68
2017-06-11T20:13:48.295Z,24.82
2017-06-11T20:16:14.702Z,24.76
2017-06-11T20:18:41.063Z,24.80
2017-06-11T20:21:07.459Z,24.73
2017-06-11T20:23:33.817Z,24.63
2017-06-11T20:26:00.192Z,24.64
2017-06-11T20:28:26.561Z,24.75
2017-06-11T20:30:52.920Z,24.76
2017-06-11T20:33:19.306Z,24.71
2017-06-11T20:35:45.725Z,24.37
2017-06-11T20:38:12.057Z,24.25
2017-06-11T20:40:38.385Z,24.63
2017-06-11T20:43:04.815Z,24.55
2017-06-11T20:45:31.177Z,24.40
2017-06-11T20:47:57.532Z,24.44
2017-06-11T20:50:23.918Z,24.34
2017-06-11T20:52:50.256Z,24.32
2017-06-11T20:55:16.609Z,24.34
2017-06-11T20:57:42.967Z,24.38
2017-06-11T21:00:09.339Z,23.12
2017-06-11T21:02:35.673Z,23.32
2017-06-11T21:05:02.019Z,24.06
2017-06-11T21:07:28.342Z,24.21
2017-06-11T21:09:54.698Z,23.56
2017-06-11T21:12:21.035Z,23.60
2017-06-11T21:14:47.362Z,23.98
2017-06-11T21:17:13.699Z,23.67
2017-06-11T21:19:40.054Z,23.37
2017-06-11T21:22:06.441Z,23.51
2017-06-11T21:24:32.808Z,23.34
2017-06-11T21:26:59.185Z,23.18
2017-06-11T21:29:25.530Z,23.07
2017-06-11T21:31:51.944Z,23.10
2017-06-11T21:34:18.320Z,22.85
2017-06-11T21:36:45.044Z,23.16
2017-06-11T21:39:11.420Z,22.80
2017-06-11T21:41:37.796Z,22.66
2017-06-11T21:44:04.160Z,22.94
2017-06-11T21:46:30.521Z,22.98
2017-06-11T21:48:56.966Z,22.84
2017-06-11T21:51:23.337Z,22.76
2017-06-11T21:53:49.682Z,22.73
2017-06-11T21:56:16.378Z,22.83
2017-06-11T21:58:42.892Z,22.89
2017-06-11T22:01:09.271Z,22.89
2017-06-11T22:03:35.606Z,22.71
2017-06-11T22:06:01.941Z,22.59
2017-06-11T22:08:28.273Z,22.33
2017-06-11T22:10:54.604Z,22.61
2017-06-11T22:13:21.490Z,22.27
2017-06-11T22:15:47.896Z,22.08
2017-06-11T22:18:14.683Z,22.51
2017-06-11T22:20:41.010Z,22.71
2017-06-11T22:23:07.478Z,22.49
2017-06-11T22:25:33.870Z,22.03
2017-06-11T22:28:00.203Z,21.90
2017-06-11T22:30:26.556Z,22.42
2017-06-11T22:32:52.919Z,22.35
2017-06-11T22:35:19.422Z,22.20
2017-06-11T22:37:46.183Z,21.97
2017-06-11T22:40:12.728Z,22.21
2017-06-11T22:42:39.145Z,22.25
2017-06-11T22:45:05.513Z,22.48
2017-06-11T22:47:32.046Z,22.71
2017-06-11T22:49:58.500Z,22.58
2017-06-11T22:52:25.211Z,22.36
2017-06-11T22:54:51.872Z,21.77
2017-06-11T22:57:18.204Z,22.20
2017-06-11T22:59:44.565Z,21.77
2017-06-11T23:02:10.944Z,21.93
2017-06-11T23:04:37.285Z,22.22
2017-06-11T23:07:03.758Z,22.43
2017-06-11T23:09:30.113Z,22.44
2017-06-11T23:11:56.504Z,22.70
2017-06-11T23:14:22.861Z,22.15
2017-06-11T23:16:49.306Z,21.66
2017-06-11T23:19:15.835Z,22.10
2017-06-11T23:21:43.538Z,22.20
2017-06-11T23:24:10.110Z,22.38
2017-06-11T23:26:36.722Z,22.29
2017-06-11T23:29:03.626Z,22.46
2017-06-11T23:31:32.422Z,22.05
2017-06-11T23:33:58.815Z,21.64
2017-06-11T23:36:26.768Z,21.94
2017-06-11T23:38:55.075Z,22.32
2017-06-11T23:41:23.696Z,22.17
2017-06-11T23:43:50.133Z,21.75
2017-06-11T23:46:16.457Z,21.69
2017-06-11T23:48:42.850Z,20.97
2017-06-11T23:51:09.265Z,21.76
2017-06-11T23:53:35.603Z,21.65
2017-06-11T23:56:01.923Z,21.61
2017-06-11T23:58:28.627Z,21.68
